Time;durP1;ratioP1;P1;durP2;ratioP2;P2;SDS_P1;SDS_P2;PMS_P1;PMS_P2;Temp;Humidity;BMP_temperature;BMP_pressure;BME280_temperature;BME280_humidity;BME280_pressure;Samples;Min_cycle;Max_cycle;Signal;HPM_P1;HPM_P2
2022/10/22 00:00:14;;;;;;;;;1.50;0.00;;;;;;;;5043652;28;62602;-75
2022/10/22 00:02:39;;;;;;;;;0.00;0.00;;;;;;;;5044117;28;62053;-76
2022/10/22 00:05:05;;;;;;;;;1.00;1.00;;;;;;;;5026056;28;61780;-75
2022/10/22 00:07:30;;;;;;;;;1.25;0.00;;;;;;;;5044078;28;61909;-76
2022/10/22 00:09:55;;;;;;;;;0.50;0.50;;;;;;;;5043208;28;63102;-76
2022/10/22 00:12:21;;;;;;;;;1.00;1.00;;;;;;;;5043817;28;61791;-76
2022/10/22 00:14:47;;;;;;;;;0.00;0.00;;;;;;;;5025915;28;62419;-76
2022/10/22 00:17:12;;;;;;;;;1.00;0.00;;;;;;;;5026216;28;62258;-75
2022/10/22 00:19:38;;;;;;;;;0.50;0.25;;;;;;;;5042686;28;62698;-75
2022/10/22 00:22:04;;;;;;;;;1.00;0.00;;;;;;;;5043962;28;62021;-75
2022/10/22 00:24:30;;;;;;;;;0.00;0.00;;;;;;;;5024473;28;61870;-76
2022/10/22 00:26:55;;;;;;;;;0.00;0.00;;;;;;;;5025435;28;62123;-76
2022/10/22 00:29:21;;;;;;;;;1.00;1.00;;;;;;;;5060033;28;62980;-75
2022/10/22 00:31:48;;;;;;;;;1.00;1.00;;;;;;;;5063470;28;62040;-75
2022/10/22 00:34:17;;;;;;;;;1.25;0.00;;;;;;;;5063828;28;61735;-76
2022/10/22 00:36:42;;;;;;;;;0.00;0.00;;;;;;;;5063590;28;61916;-76
2022/10/22 00:39:07;;;;;;;;;3.00;0.00;;;;;;;;5044755;28;63687;-75
2022/10/22 00:41:33;;;;;;;;;0.25;0.00;;;;;;;;5044962;28;61815;-76
2022/10/22 00:44:00;;;;;;;;;0.50;0.50;;;;;;;;5063469;28;62055;-76
2022/10/22 00:46:25;;;;;;;;;0.00;0.00;;;;;;;;5063610;28;61835;-76
2022/10/22 00:48:51;;;;;;;;;0.25;0.25;;;;;;;;5062375;28;61926;-75
2022/10/22 00:51:19;;;;;;;;;1.50;0.00;;;;;;;;5063161;28;62308;-76
2022/10/22 00:53:49;;;;;;;;;1.50;0.00;;;;;;;;5032308;28;61909;-76
2022/10/22 00:56:14;;;;;;;;;2.50;1.00;;;;;;;;5023285;28;61871;-76
2022/10/22 00:58:44;;;;;;;;;1.67;0.00;;;;;;;;5022466;28;62690;-77
2022/10/22 01:01:12;;;;;;;;;1.00;0.00;;;;;;;;5023203;28;61929;-75
2022/10/22 01:03:38;;;;;;;;;1.67;1.00;;;;;;;;5023015;28;61890;-76
2022/10/22 01:06:04;;;;;;;;;0.00;0.00;;;;;;;;5021899;28;62110;-75
2022/10/22 01:08:47;;;;;;;;;1.25;0.75;;;;;;;;5022309;28;61868;-75
2022/10/22 01:11:16;;;;;;;;;4.25;0.00;;;;;;;;5021572;28;61797;-75
2022/10/22 01:14:13;;;;;;;;;2.25;0.25;;;;;;;;5022766;28;61902;-76
2022/10/22 01:16:41;;;;;;;;;1.00;0.00;;;;;;;;5010649;28;62307;-75
2022/10/22 01:19:12;;;;;;;;;0.75;0.75;;;;;;;;5022005;28;63055;-75
2022/10/22 01:21:42;;;;;;;;;1.00;1.00;;;;;;;;5021586;28;61924;-75
2022/10/22 01:24:08;;;;;;;;;1.00;1.00;;;;;;;;5022586;28;61736;-76
2022/10/22 01:26:45;;;;;;;;;0.00;0.00;;;;;;;;5022727;28;61919;-75
2022/10/22 01:29:10;;;;;;;;;0.25;0.25;;;;;;;;5015168;28;62089;-76
2022/10/22 01:31:43;;;;;;;;;0.75;0.00;;;;;;;;5002785;28;61803;-76
2022/10/22 01:34:10;;;;;;;;;2.25;0.00;;;;;;;;5003056;28;61943;-75
2022/10/22 01:36:36;;;;;;;;;1.00;0.67;;;;;;;;5001108;28;61952;-75
2022/10/22 01:39:02;;;;;;;;;0.50;0.00;;;;;;;;5001515;28;61737;-75
2022/10/22 01:41:28;;;;;;;;;3.25;0.00;;;;;;;;5002687;28;62004;-75
2022/10/22 01:43:54;;;;;;;;;0.00;0.00;;;;;;;;5002394;28;61706;-75
2022/10/22 01:46:20;;;;;;;;;0.00;0.00;;;;;;;;5001460;28;61819;-75
2022/10/22 01:49:24;;;;;;;;;0.00;0.00;;;;;;;;5000414;28;64821;-76
2022/10/22 01:52:13;;;;;;;;;1.00;0.00;;;;;;;;4979787;28;62116;-76
2022/10/22 01:54:44;;;;;;;;;0.00;0.00;;;;;;;;4985970;28;61955;-75
2022/10/22 01:57:37;;;;;;;;;0.00;0.00;;;;;;;;4983146;28;62218;-75
2022/10/22 02:00:05;;;;;;;;;0.75;0.75;;;;;;;;4999225;28;61921;-76
2022/10/22 02:02:37;;;;;;;;;0.00;0.00;;;;;;;;4999958;28;62067;-75
2022/10/22 02:05:22;;;;;;;;;0.00;0.00;;;;;;;;4999766;28;61781;-76
2022/10/22 02:08:00;;;;;;;;;0.00;0.00;;;;;;;;4998916;28;61797;-75
2022/10/22 02:10:26;;;;;;;;;0.00;0.00;;;;;;;;4999244;28;62179;-76
2022/10/22 02:12:53;;;;;;;;;0.25;0.00;;;;;;;;4999769;28;62021;-75
2022/10/22 02:15:20;;;;;;;;;3.75;0.50;;;;;;;;4999768;28;62157;-76
2022/10/22 02:17:46;;;;;;;;;0.00;0.00;;;;;;;;5000017;28;62109;-75
2022/10/22 02:20:15;;;;;;;;;0.75;0.00;;;;;;;;4998925;28;62621;-77
2022/10/22 02:22:41;;;;;;;;;0.00;0.00;;;;;;;;4991108;28;61826;-75
2022/10/22 02:25:06;;;;;;;;;0.33;0.33;;;;;;;;5001823;28;61789;-76
2022/10/22 02:27:36;;;;;;;;;0.00;0.00;;;;;;;;5004815;28;61820;-75
2022/10/22 02:30:08;;;;;;;;;3.00;0.00;;;;;;;;5007160;28;61865;-76
2022/10/22 02:32:56;;;;;;;;;1.25;0.00;;;;;;;;5002002;28;61864;-75
2022/10/22 02:35:24;;;;;;;;;0.25;0.25;;;;;;;;5001827;28;62048;-76
2022/10/22 02:37:51;;;;;;;;;3.00;0.00;;;;;;;;5002108;28;61702;-75
2022/10/22 02:40:19;;;;;;;;;0.25;0.00;;;;;;;;4999626;28;62185;-75
2022/10/22 02:42:49;;;;;;;;;1.00;0.00;;;;;;;;5002000;28;61915;-75
2022/10/22 02:45:16;;;;;;;;;0.25;0.25;;;;;;;;5000036;28;61755;-75
2022/10/22 02:47:41;;;;;;;;;0.75;0.75;;;;;;;;5002780;28;61913;-76
2022/10/22 02:50:07;;;;;;;;;0.75;0.00;;;;;;;;5004152;28;61901;-76
2022/10/22 02:52:32;;;;;;;;;1.25;1.25;;;;;;;;5003937;28;62246;-76
2022/10/22 02:54:57;;;;;;;;;1.75;0.00;;;;;;;;5043087;28;62216;-75
2022/10/22 02:57:23;;;;;;;;;2.50;0.00;;;;;;;;5026944;28;62388;-75
2022/10/22 02:59:48;;;;;;;;;1.25;0.00;;;;;;;;5044523;28;62546;-75
2022/10/22 03:02:13;;;;;;;;;2.00;0.75;;;;;;;;5044791;28;61741;-75
2022/10/22 03:04:38;;;;;;;;;1.25;0.00;;;;;;;;5026675;28;62251;-76
2022/10/22 03:07:04;;;;;;;;;0.75;0.75;;;;;;;;5045026;28;61979;-75
2022/10/22 03:09:29;;;;;;;;;0.00;0.00;;;;;;;;5044368;28;61754;-76
2022/10/22 03:11:54;;;;;;;;;4.00;2.50;;;;;;;;5044492;28;61916;-75
2022/10/22 03:14:19;;;;;;;;;0.75;0.75;;;;;;;;5044675;28;62185;-76
2022/10/22 03:16:45;;;;;;;;;0.00;0.00;;;;;;;;5045097;28;61930;-76
2022/10/22 03:19:10;;;;;;;;;1.00;0.00;;;;;;;;5043380;28;61754;-76
2022/10/22 03:21:41;;;;;;;;;1.75;0.00;;;;;;;;5044657;28;61849;-75
2022/10/22 03:24:10;;;;;;;;;1.00;1.00;;;;;;;;5044578;28;61912;-76
2022/10/22 03:26:37;;;;;;;;;0.50;0.00;;;;;;;;5044506;28;62044;-75
2022/10/22 03:29:02;;;;;;;;;0.75;0.00;;;;;;;;5052653;28;61883;-76
2022/10/22 03:31:27;;;;;;;;;0.00;0.00;;;;;;;;5026295;28;61953;-75
2022/10/22 03:33:53;;;;;;;;;0.00;0.00;;;;;;;;5026304;28;62076;-76
2022/10/22 03:36:18;;;;;;;;;1.00;1.00;;;;;;;;5026261;28;61799;-76
2022/10/22 03:38:43;;;;;;;;;2.00;0.00;;;;;;;;5043814;28;61797;-75
2022/10/22 03:41:09;;;;;;;;;0.50;0.00;;;;;;;;5043954;28;61739;-76
2022/10/22 03:43:35;;;;;;;;;0.00;0.00;;;;;;;;5026482;28;61723;-76
2022/10/22 03:46:00;;;;;;;;;0.00;0.00;;;;;;;;5044599;28;61790;-76
2022/10/22 03:48:25;;;;;;;;;1.75;1.00;;;;;;;;5042667;28;62105;-76
2022/10/22 03:50:51;;;;;;;;;2.00;0.00;;;;;;;;5044279;28;61814;-76
2022/10/22 03:53:16;;;;;;;;;2.75;0.50;;;;;;;;5043917;28;61929;-75
2022/10/22 03:55:41;;;;;;;;;0.25;0.25;;;;;;;;5044173;28;61975;-76
2022/10/22 03:58:07;;;;;;;;;1.00;1.00;;;;;;;;5043543;28;63424;-76
2022/10/22 04:00:33;;;;;;;;;1.00;0.00;;;;;;;;5043488;28;62081;-76
2022/10/22 04:02:58;;;;;;;;;0.00;0.00;;;;;;;;5044009;28;61928;-76
2022/10/22 04:05:23;;;;;;;;;0.00;0.00;;;;;;;;5026022;28;62150;-76
2022/10/22 04:07:49;;;;;;;;;1.25;0.00;;;;;;;;5043207;28;61784;-75
2022/10/22 04:10:14;;;;;;;;;3.50;0.00;;;;;;;;5043486;28;62030;-76
2022/10/22 04:12:39;;;;;;;;;0.00;0.00;;;;;;;;5043958;28;62003;-76
2022/10/22 04:15:05;;;;;;;;;0.25;0.25;;;;;;;;5025984;28;62171;-76
2022/10/22 04:17:34;;;;;;;;;1.00;1.00;;;;;;;;5042721;28;61805;-76
2022/10/22 04:19:59;;;;;;;;;0.00;0.00;;;;;;;;5043452;28;61794;-76
2022/10/22 04:22:25;;;;;;;;;1.00;0.00;;;;;;;;5043275;28;61971;-75
2022/10/22 04:24:50;;;;;;;;;1.50;0.75;;;;;;;;5043875;28;62130;-76
2022/10/22 04:27:15;;;;;;;;;1.00;1.00;;;;;;;;5024872;28;63528;-76
2022/10/22 04:29:40;;;;;;;;;1.00;0.00;;;;;;;;5063059;28;61934;-75
2022/10/22 04:32:06;;;;;;;;;4.00;1.00;;;;;;;;5063292;28;61874;-76
2022/10/22 04:34:31;;;;;;;;;2.25;0.50;;;;;;;;5063529;28;62148;-76
2022/10/22 04:36:56;;;;;;;;;1.75;0.50;;;;;;;;5044640;28;63950;-76
2022/10/22 04:39:21;;;;;;;;;1.00;0.00;;;;;;;;5045265;28;61929;-76
2022/10/22 04:41:47;;;;;;;;;1.00;1.00;;;;;;;;5063173;28;62479;-76
2022/10/22 04:44:13;;;;;;;;;3.50;0.00;;;;;;;;5063630;28;62008;-76
2022/10/22 04:46:38;;;;;;;;;0.00;0.00;;;;;;;;5062188;28;61777;-75
2022/10/22 04:49:03;;;;;;;;;0.50;0.00;;;;;;;;5044402;28;62049;-76
2022/10/22 04:51:29;;;;;;;;;2.00;1.00;;;;;;;;5063122;28;62013;-75
2022/10/22 04:53:54;;;;;;;;;0.50;0.50;;;;;;;;5062829;28;62116;-75
2022/10/22 04:56:24;;;;;;;;;1.00;1.00;;;;;;;;5062245;28;62969;-75
2022/10/22 04:58:50;;;;;;;;;0.00;0.00;;;;;;;;5063307;28;61760;-75
2022/10/22 05:01:36;;;;;;;;;0.00;0.00;;;;;;;;5044601;28;61747;-76
2022/10/22 05:04:02;;;;;;;;;2.00;1.00;;;;;;;;5062634;28;61766;-75
2022/10/22 05:06:28;;;;;;;;;0.00;0.00;;;;;;;;5044020;28;63584;-76
2022/10/22 05:08:55;;;;;;;;;3.25;1.25;;;;;;;;5062835;28;62014;-75
2022/10/22 05:11:22;;;;;;;;;1.25;0.00;;;;;;;;5043788;28;61770;-75
2022/10/22 05:13:47;;;;;;;;;0.50;0.50;;;;;;;;5062592;28;61954;-76
2022/10/22 05:16:13;;;;;;;;;0.25;0.00;;;;;;;;5062044;28;62925;-76
2022/10/22 05:18:39;;;;;;;;;0.33;0.00;;;;;;;;5044289;28;62264;-76
2022/10/22 05:21:09;;;;;;;;;2.00;1.00;;;;;;;;5062772;28;61958;-76
2022/10/22 05:23:34;;;;;;;;;0.00;0.00;;;;;;;;5062721;28;61860;-76
2022/10/22 05:26:04;;;;;;;;;1.50;0.00;;;;;;;;5043708;28;64170;-76
2022/10/22 05:28:29;;;;;;;;;2.00;0.25;;;;;;;;5062333;28;62011;-76
2022/10/22 05:30:55;;;;;;;;;0.00;0.00;;;;;;;;5062290;28;61933;-76
2022/10/22 05:33:21;;;;;;;;;0.50;0.50;;;;;;;;5062760;28;61781;-75
2022/10/22 05:35:47;;;;;;;;;0.75;0.75;;;;;;;;5061709;28;61939;-76
2022/10/22 05:38:12;;;;;;;;;0.75;0.50;;;;;;;;5044317;28;62012;-76
2022/10/22 05:40:37;;;;;;;;;0.75;0.50;;;;;;;;5062194;28;61865;-75
2022/10/22 05:43:03;;;;;;;;;2.75;2.00;;;;;;;;5062616;28;61710;-76
2022/10/22 05:45:28;;;;;;;;;3.00;0.00;;;;;;;;5061774;28;61740;-76
2022/10/22 05:47:53;;;;;;;;;2.25;0.00;;;;;;;;5043971;28;61924;-76
2022/10/22 05:50:19;;;;;;;;;1.00;1.00;;;;;;;;5061951;28;61911;-76
2022/10/22 05:52:44;;;;;;;;;2.50;0.00;;;;;;;;5062276;28;62070;-76
2022/10/22 05:55:09;;;;;;;;;1.50;0.00;;;;;;;;5061466;28;61757;-76
2022/10/22 05:57:34;;;;;;;;;0.75;0.75;;;;;;;;5043973;28;61966;-76
2022/10/22 06:00:00;;;;;;;;;0.00;0.00;;;;;;;;5062034;28;61954;-76
2022/10/22 06:02:25;;;;;;;;;2.00;0.25;;;;;;;;5062595;28;61814;-76
2022/10/22 06:04:50;;;;;;;;;2.00;0.00;;;;;;;;5043275;28;64110;-75
2022/10/22 06:07:15;;;;;;;;;1.00;1.00;;;;;;;;5043918;28;62063;-76
2022/10/22 06:09:41;;;;;;;;;1.00;0.00;;;;;;;;5043944;28;61800;-76
2022/10/22 06:12:09;;;;;;;;;1.00;1.00;;;;;;;;5043932;28;61783;-76
2022/10/22 06:14:35;;;;;;;;;0.75;0.00;;;;;;;;5061328;28;61726;-76
2022/10/22 06:17:00;;;;;;;;;0.25;0.00;;;;;;;;5043600;28;61911;-76
2022/10/22 06:19:25;;;;;;;;;3.25;0.50;;;;;;;;5043801;28;61720;-76
2022/10/22 06:21:51;;;;;;;;;0.75;0.50;;;;;;;;5061958;28;62068;-76
2022/10/22 06:24:17;;;;;;;;;2.50;0.00;;;;;;;;5064114;28;61913;-77
2022/10/22 06:26:42;;;;;;;;;2.50;0.00;;;;;;;;5051359;28;62070;-77
2022/10/22 06:29:08;;;;;;;;;1.00;1.00;;;;;;;;5060363;28;62008;-78
2022/10/22 06:31:35;;;;;;;;;0.00;0.00;;;;;;;;5065728;28;62047;-78
2022/10/22 06:34:05;;;;;;;;;1.00;1.00;;;;;;;;5064615;28;62087;-78
2022/10/22 06:36:30;;;;;;;;;2.00;1.00;;;;;;;;5047086;28;62225;-79
2022/10/22 06:38:56;;;;;;;;;3.00;1.00;;;;;;;;5065226;28;61922;-79
2022/10/22 06:41:21;;;;;;;;;2.75;0.00;;;;;;;;5065505;28;61793;-79
2022/10/22 06:43:47;;;;;;;;;3.50;2.00;;;;;;;;5046157;28;63503;-79
2022/10/22 06:46:13;;;;;;;;;1.75;1.00;;;;;;;;5065838;28;61814;-78
2022/10/22 06:48:39;;;;;;;;;1.00;1.00;;;;;;;;5064890;28;61924;-78
2022/10/22 06:51:05;;;;;;;;;2.00;0.00;;;;;;;;5064605;28;61881;-79
2022/10/22 06:53:31;;;;;;;;;1.25;0.25;;;;;;;;5063966;28;61897;-79
2022/10/22 06:55:56;;;;;;;;;2.00;1.00;;;;;;;;5064275;28;62000;-79
2022/10/22 06:58:21;;;;;;;;;1.50;0.00;;;;;;;;5044202;28;61732;-78
2022/10/22 07:00:47;;;;;;;;;0.50;0.00;;;;;;;;5044529;28;61850;-78
2022/10/22 07:03:13;;;;;;;;;0.67;0.67;;;;;;;;5025347;28;63768;-78
2022/10/22 07:05:38;;;;;;;;;2.00;0.00;;;;;;;;5044221;28;61953;-78
2022/10/22 07:08:04;;;;;;;;;0.00;0.00;;;;;;;;5026218;28;61892;-77
2022/10/22 07:10:29;;;;;;;;;3.25;1.00;;;;;;;;5044188;28;61709;-78
2022/10/22 07:12:54;;;;;;;;;1.25;1.25;;;;;;;;5043816;28;61942;-78
2022/10/22 07:15:19;;;;;;;;;0.75;0.75;;;;;;;;5026426;28;62077;-77
2022/10/22 07:17:45;;;;;;;;;1.00;0.00;;;;;;;;5025771;28;62059;-78
2022/10/22 07:20:11;;;;;;;;;0.00;0.00;;;;;;;;5043898;28;61727;-78
2022/10/22 07:22:36;;;;;;;;;2.67;1.00;;;;;;;;5043338;28;61647;-78
2022/10/22 07:25:01;;;;;;;;;1.25;1.00;;;;;;;;5025897;28;62089;-78
2022/10/22 07:27:27;;;;;;;;;2.00;1.00;;;;;;;;5045526;28;62148;-77
2022/10/22 07:29:52;;;;;;;;;0.00;0.00;;;;;;;;5051690;28;61731;-77
2022/10/22 07:32:17;;;;;;;;;0.00;0.00;;;;;;;;5024973;28;63662;-77
2022/10/22 07:34:42;;;;;;;;;1.25;0.00;;;;;;;;5053709;28;61652;-77
2022/10/22 07:37:08;;;;;;;;;0.00;0.00;;;;;;;;5035379;28;62135;-78
2022/10/22 07:39:33;;;;;;;;;2.00;1.00;;;;;;;;5052618;28;61705;-79
2022/10/22 07:41:58;;;;;;;;;3.00;0.00;;;;;;;;5051459;28;62578;-76
2022/10/22 07:44:24;;;;;;;;;1.00;0.00;;;;;;;;5035110;28;61695;-77
2022/10/22 07:46:49;;;;;;;;;1.25;0.50;;;;;;;;5033541;28;61741;-76
2022/10/22 07:49:14;;;;;;;;;1.00;1.00;;;;;;;;5034516;28;62032;-76
2022/10/22 07:51:39;;;;;;;;;2.33;1.33;;;;;;;;5034232;28;64854;-76
2022/10/22 07:54:05;;;;;;;;;1.00;1.00;;;;;;;;5063555;28;61925;-76
2022/10/22 07:56:30;;;;;;;;;2.67;1.00;;;;;;;;5045058;28;61795;-75
2022/10/22 07:58:55;;;;;;;;;2.00;0.00;;;;;;;;5060559;28;61722;-75
2022/10/22 08:01:21;;;;;;;;;3.25;2.00;;;;;;;;5050649;28;62830;-75
2022/10/22 08:03:46;;;;;;;;;1.00;0.00;;;;;;;;5052962;28;61931;-75
2022/10/22 08:06:12;;;;;;;;;0.00;0.00;;;;;;;;5051682;28;61752;-75
2022/10/22 08:08:37;;;;;;;;;1.00;1.00;;;;;;;;5033968;28;61895;-76
2022/10/22 08:11:02;;;;;;;;;2.00;1.33;;;;;;;;5044253;28;63023;-76
2022/10/22 08:13:29;;;;;;;;;2.00;1.50;;;;;;;;5043291;28;61962;-76
2022/10/22 08:15:55;;;;;;;;;3.00;1.00;;;;;;;;5043151;28;62116;-76
2022/10/22 08:18:20;;;;;;;;;2.00;0.67;;;;;;;;5043225;28;61883;-77
2022/10/22 08:20:45;;;;;;;;;0.33;0.33;;;;;;;;5024828;28;63615;-76
2022/10/22 08:23:11;;;;;;;;;1.00;1.00;;;;;;;;5043080;28;61877;-76
2022/10/22 08:25:36;;;;;;;;;1.00;0.00;;;;;;;;5024767;28;61834;-76
2022/10/22 08:28:01;;;;;;;;;2.00;1.67;;;;;;;;5042972;28;61739;-76
2022/10/22 08:30:28;;;;;;;;;0.00;0.00;;;;;;;;5023694;28;63711;-76
2022/10/22 08:32:53;;;;;;;;;0.67;0.67;;;;;;;;5042872;28;61756;-76
2022/10/22 08:35:19;;;;;;;;;2.00;1.00;;;;;;;;5042471;28;62167;-76
2022/10/22 08:37:44;;;;;;;;;3.00;0.00;;;;;;;;5042687;28;61907;-76
2022/10/22 08:40:18;;;;;;;;;0.00;0.00;;;;;;;;5041831;28;61858;-77
2022/10/22 08:42:43;;;;;;;;;1.67;1.00;;;;;;;;5043604;28;61903;-78
2022/10/22 08:45:29;;;;;;;;;2.00;1.00;;;;;;;;5024907;28;61847;-79
2022/10/22 08:48:01;;;;;;;;;3.67;1.00;;;;;;;;5043021;28;61902;-79
2022/10/22 08:50:32;;;;;;;;;1.33;0.67;;;;;;;;5041325;28;61726;-79
2022/10/22 08:53:00;;;;;;;;;2.00;0.33;;;;;;;;5042529;28;61754;-82
2022/10/22 08:55:25;;;;;;;;;3.33;2.33;;;;;;;;5041787;28;61854;-78
2022/10/22 08:58:03;;;;;;;;;1.00;1.00;;;;;;;;5042917;28;61696;-79
2022/10/22 09:00:36;;;;;;;;;1.67;0.00;;;;;;;;5023742;28;63910;-79
2022/10/22 09:03:18;;;;;;;;;1.00;1.00;;;;;;;;5042545;28;61753;-79
2022/10/22 09:06:02;;;;;;;;;5.33;0.67;;;;;;;;5042299;28;61743;-78
2022/10/22 09:08:27;;;;;;;;;0.33;0.33;;;;;;;;5042195;28;61884;-79
2022/10/22 09:11:14;;;;;;;;;0.00;0.00;;;;;;;;5023856;28;63758;-78
2022/10/22 09:13:41;;;;;;;;;0.33;0.33;;;;;;;;5023880;28;61793;-78
2022/10/22 09:16:13;;;;;;;;;0.00;0.00;;;;;;;;5042536;28;61952;-78
2022/10/22 09:18:42;;;;;;;;;3.00;1.00;;;;;;;;5042068;28;61848;-78
2022/10/22 09:21:18;;;;;;;;;0.00;0.00;;;;;;;;5041697;28;61740;-79
2022/10/22 09:24:07;;;;;;;;;1.00;0.00;;;;;;;;5041924;28;61850;-79
2022/10/22 09:26:35;;;;;;;;;1.33;0.00;;;;;;;;5010738;28;61981;-78
2022/10/22 09:29:01;;;;;;;;;0.67;0.67;;;;;;;;5042051;28;61791;-78
2022/10/22 09:31:26;;;;;;;;;2.00;1.00;;;;;;;;5041605;28;61730;-79
2022/10/22 09:33:52;;;;;;;;;1.00;1.00;;;;;;;;5023167;28;62053;-78
2022/10/22 09:36:20;;;;;;;;;3.33;0.00;;;;;;;;5041860;28;61925;-78
2022/10/22 09:38:46;;;;;;;;;0.67;0.67;;;;;;;;5042010;28;61751;-78
2022/10/22 09:41:12;;;;;;;;;1.00;1.00;;;;;;;;5041182;28;62703;-79
2022/10/22 09:43:38;;;;;;;;;0.67;0.67;;;;;;;;5023901;28;61995;-79
2022/10/22 09:46:11;;;;;;;;;2.00;1.00;;;;;;;;5042009;28;61995;-79
2022/10/22 09:48:40;;;;;;;;;0.00;0.00;;;;;;;;5041611;28;61831;-78
2022/10/22 09:51:11;;;;;;;;;1.00;0.67;;;;;;;;5040906;28;62879;-79
2022/10/22 09:53:40;;;;;;;;;1.33;1.33;;;;;;;;5023277;28;61878;-78
2022/10/22 09:56:07;;;;;;;;;0.67;0.00;;;;;;;;5023681;28;61788;-78
2022/10/22 09:58:43;;;;;;;;;0.00;0.00;;;;;;;;5041073;28;61723;-78
2022/10/22 10:01:14;;;;;;;;;1.00;0.00;;;;;;;;5040653;28;62640;-77
2022/10/22 10:03:39;;;;;;;;;0.67;0.33;;;;;;;;5040792;28;61893;-78
2022/10/22 10:06:06;;;;;;;;;1.00;1.00;;;;;;;;5041521;28;61741;-78
2022/10/22 10:08:31;;;;;;;;;2.00;0.00;;;;;;;;5041839;28;61715;-79
2022/10/22 10:10:57;;;;;;;;;0.00;0.00;;;;;;;;5042985;28;62477;-78
2022/10/22 10:13:35;;;;;;;;;4.00;1.00;;;;;;;;5051042;28;61750;-77
2022/10/22 10:16:06;;;;;;;;;2.00;1.00;;;;;;;;5048156;28;61845;-78
2022/10/22 10:18:32;;;;;;;;;2.00;0.00;;;;;;;;5049736;28;61826;-79
2022/10/22 10:21:01;;;;;;;;;1.67;0.00;;;;;;;;5031416;28;61839;-78
2022/10/22 10:23:40;;;;;;;;;1.67;0.00;;;;;;;;5049365;28;61845;-77
2022/10/22 10:26:12;;;;;;;;;0.00;0.00;;;;;;;;5046069;28;61799;-78
2022/10/22 10:28:49;;;;;;;;;0.00;0.00;;;;;;;;5049200;28;62071;-78
2022/10/22 10:31:24;;;;;;;;;1.67;1.00;;;;;;;;5030016;28;64976;-78
2022/10/22 10:33:55;;;;;;;;;0.33;0.33;;;;;;;;5028649;28;62010;-77
2022/10/22 10:36:26;;;;;;;;;0.00;0.00;;;;;;;;5048602;28;61940;-83
2022/10/22 10:39:05;;;;;;;;;2.00;0.00;;;;;;;;5050525;28;61803;-75
2022/10/22 10:41:50;;;;;;;;;1.33;0.67;;;;;;;;5030768;28;63852;-79
2022/10/22 10:44:19;;;;;;;;;2.33;1.00;;;;;;;;5048850;28;61845;-78
2022/10/22 10:46:44;;;;;;;;;0.00;0.00;;;;;;;;5048788;28;61785;-78
2022/10/22 10:49:15;;;;;;;;;1.00;0.00;;;;;;;;5031510;28;62062;-79
2022/10/22 10:51:53;;;;;;;;;0.33;0.00;;;;;;;;5049965;28;62261;-78
2022/10/22 10:54:37;;;;;;;;;1.00;0.00;;;;;;;;5050277;28;62405;-78
2022/10/22 10:57:09;;;;;;;;;0.00;0.00;;;;;;;;5056476;28;62956;-77
2022/10/22 10:59:44;;;;;;;;;0.00;0.00;;;;;;;;5061164;28;61914;-77
2022/10/22 11:02:17;;;;;;;;;1.00;0.00;;;;;;;;5042323;28;63718;-77
2022/10/22 11:05:05;;;;;;;;;0.67;0.00;;;;;;;;5060922;28;61922;-77
2022/10/22 11:07:35;;;;;;;;;0.00;0.00;;;;;;;;5043052;28;62144;-77
2022/10/22 11:10:19;;;;;;;;;0.00;0.00;;;;;;;;5063162;28;61920;-77
2022/10/22 11:12:50;;;;;;;;;2.33;0.00;;;;;;;;5045346;28;63550;-77
2022/10/22 11:15:21;;;;;;;;;1.33;0.00;;;;;;;;5064178;28;62023;-77
2022/10/22 11:17:47;;;;;;;;;2.33;0.00;;;;;;;;5042258;28;61927;-76
2022/10/22 11:20:19;;;;;;;;;0.00;0.00;;;;;;;;5034624;28;62041;-76
2022/10/22 11:22:54;;;;;;;;;1.67;0.00;;;;;;;;5034850;28;63675;-76
2022/10/22 11:25:40;;;;;;;;;0.33;0.33;;;;;;;;5034827;28;61822;-78
2022/10/22 11:28:13;;;;;;;;;0.67;0.00;;;;;;;;5052940;28;61913;-78
2022/10/22 11:30:41;;;;;;;;;1.00;0.00;;;;;;;;5034049;28;61904;-77
2022/10/22 11:33:10;;;;;;;;;1.00;1.00;;;;;;;;5052229;28;61841;-76
2022/10/22 11:35:40;;;;;;;;;0.00;0.00;;;;;;;;5052827;28;62186;-77
2022/10/22 11:38:08;;;;;;;;;1.67;0.67;;;;;;;;5051118;28;62275;-77
2022/10/22 11:40:37;;;;;;;;;2.00;0.00;;;;;;;;5052767;28;61860;-78
2022/10/22 11:43:04;;;;;;;;;1.00;0.00;;;;;;;;5052511;28;61820;-78
2022/10/22 11:45:32;;;;;;;;;0.33;0.00;;;;;;;;5053657;28;61846;-79
2022/10/22 11:48:07;;;;;;;;;2.00;0.00;;;;;;;;5054498;28;61991;-79
2022/10/22 11:50:48;;;;;;;;;1.33;0.00;;;;;;;;5040348;28;62011;-79
2022/10/22 11:53:13;;;;;;;;;0.00;0.00;;;;;;;;5032771;28;64729;-78
2022/10/22 11:55:58;;;;;;;;;0.00;0.00;;;;;;;;5042140;28;61877;-77
2022/10/22 11:58:26;;;;;;;;;1.67;0.67;;;;;;;;5048534;28;61730;-78
2022/10/22 12:00:52;;;;;;;;;2.67;0.00;;;;;;;;5040788;28;61768;-77
2022/10/22 12:03:27;;;;;;;;;0.00;0.00;;;;;;;;5039993;28;61986;-78
2022/10/22 12:06:01;;;;;;;;;1.00;1.00;;;;;;;;5019299;28;63118;-79
2022/10/22 12:08:27;;;;;;;;;2.00;0.67;;;;;;;;5041456;28;61928;-79
2022/10/22 12:11:12;;;;;;;;;2.00;1.00;;;;;;;;5040814;28;61835;-79
2022/10/22 12:13:59;;;;;;;;;0.67;0.00;;;;;;;;5023949;28;65101;-79
2022/10/22 12:16:38;;;;;;;;;0.67;0.67;;;;;;;;5021491;28;61874;-80
2022/10/22 12:19:15;;;;;;;;;1.00;1.00;;;;;;;;5039566;28;61977;-80
2022/10/22 12:21:42;;;;;;;;;0.67;0.00;;;;;;;;5022756;28;61961;-80
2022/10/22 12:24:12;;;;;;;;;0.00;0.00;;;;;;;;5021713;28;63296;-79
2022/10/22 12:26:37;;;;;;;;;1.00;0.00;;;;;;;;5017471;28;62010;-79
2022/10/22 12:29:09;;;;;;;;;0.00;0.00;;;;;;;;5036774;28;62247;-78
2022/10/22 12:31:35;;;;;;;;;0.00;0.00;;;;;;;;5022559;28;62384;-78
2022/10/22 12:34:00;;;;;;;;;0.33;0.00;;;;;;;;5039796;28;61858;-78
2022/10/22 12:36:34;;;;;;;;;0.00;0.00;;;;;;;;5038104;28;61955;-78
2022/10/22 12:39:03;;;;;;;;;1.00;0.00;;;;;;;;5039410;28;61965;-78
2022/10/22 12:41:37;;;;;;;;;0.00;0.00;;;;;;;;5027465;28;61842;-78
2022/10/22 12:44:03;;;;;;;;;1.67;0.00;;;;;;;;5036292;28;62667;-78
2022/10/22 12:46:30;;;;;;;;;3.33;1.00;;;;;;;;5028242;28;62097;-78
2022/10/22 12:48:58;;;;;;;;;0.33;0.33;;;;;;;;5040254;28;62146;-78
2022/10/22 12:51:24;;;;;;;;;0.00;0.00;;;;;;;;5040795;28;62131;-79
2022/10/22 12:53:53;;;;;;;;;0.00;0.00;;;;;;;;5009420;28;63732;-79
2022/10/22 12:56:21;;;;;;;;;0.00;0.00;;;;;;;;5001202;28;62066;-79
2022/10/22 12:58:51;;;;;;;;;0.00;0.00;;;;;;;;4991255;28;62027;-78
2022/10/22 13:01:17;;;;;;;;;0.00;0.00;;;;;;;;4998084;28;62209;-78
2022/10/22 13:03:44;;;;;;;;;0.00;0.00;;;;;;;;4997429;28;64611;-79
2022/10/22 13:06:22;;;;;;;;;0.00;0.00;;;;;;;;4999443;28;61807;-78
2022/10/22 13:09:14;;;;;;;;;0.33;0.00;;;;;;;;4998098;28;61860;-79
2022/10/22 13:11:41;;;;;;;;;0.00;0.00;;;;;;;;4994841;28;62179;-79
2022/10/22 13:14:19;;;;;;;;;0.00;0.00;;;;;;;;4998503;28;62668;-78
2022/10/22 13:17:01;;;;;;;;;0.00;0.00;;;;;;;;4996374;28;61745;-78
2022/10/22 13:19:39;;;;;;;;;0.00;0.00;;;;;;;;5012323;28;61892;-79
2022/10/22 13:22:04;;;;;;;;;2.00;2.00;;;;;;;;4998724;28;61988;-79
2022/10/22 13:24:29;;;;;;;;;1.00;0.00;;;;;;;;4996483;28;61808;-79
2022/10/22 13:26:56;;;;;;;;;1.67;0.00;;;;;;;;5002856;28;62687;-79
2022/10/22 13:29:22;;;;;;;;;0.67;0.67;;;;;;;;5004463;28;61966;-79
2022/10/22 13:31:51;;;;;;;;;0.67;0.00;;;;;;;;5000624;28;61929;-79
2022/10/22 13:34:18;;;;;;;;;0.33;0.00;;;;;;;;5001050;28;63214;-78
2022/10/22 13:36:43;;;;;;;;;0.00;0.00;;;;;;;;5001505;28;62066;-80
2022/10/22 13:39:15;;;;;;;;;1.00;0.00;;;;;;;;5001825;28;62314;-79
2022/10/22 13:41:41;;;;;;;;;1.00;0.00;;;;;;;;4998024;28;61987;-79
2022/10/22 13:44:06;;;;;;;;;0.67;0.00;;;;;;;;4995341;28;61882;-79
2022/10/22 13:46:31;;;;;;;;;0.00;0.00;;;;;;;;4995662;28;61771;-79
2022/10/22 13:48:58;;;;;;;;;0.00;0.00;;;;;;;;5000373;28;62082;-79
2022/10/22 13:51:26;;;;;;;;;0.00;0.00;;;;;;;;5005742;28;61997;-79
2022/10/22 13:53:52;;;;;;;;;0.00;0.00;;;;;;;;5026752;28;62841;-80
2022/10/22 13:56:19;;;;;;;;;0.00;0.00;;;;;;;;5040809;28;62238;-80
2022/10/22 13:58:46;;;;;;;;;0.00;0.00;;;;;;;;5029077;28;61897;-80
2022/10/22 14:01:26;;;;;;;;;0.00;0.00;;;;;;;;5040771;28;61736;-81
2022/10/22 14:03:53;;;;;;;;;0.00;0.00;;;;;;;;5041069;28;61791;-79
2022/10/22 14:06:19;;;;;;;;;1.00;0.00;;;;;;;;5041649;28;62003;-78
2022/10/22 14:08:47;;;;;;;;;0.67;0.00;;;;;;;;5028062;28;61862;-79
2022/10/22 14:11:13;;;;;;;;;1.00;0.00;;;;;;;;5043550;28;61865;-78
2022/10/22 14:13:38;;;;;;;;;0.33;0.00;;;;;;;;5046429;28;62670;-79
2022/10/22 14:16:05;;;;;;;;;0.00;0.00;;;;;;;;5059031;28;61754;-79
2022/10/22 14:18:31;;;;;;;;;1.00;0.00;;;;;;;;5051338;28;61755;-79
2022/10/22 14:20:58;;;;;;;;;0.00;0.00;;;;;;;;5023102;28;61864;-80
2022/10/22 14:23:26;;;;;;;;;0.00;0.00;;;;;;;;5026845;28;63683;-81
2022/10/22 14:25:51;;;;;;;;;0.00;0.00;;;;;;;;5023756;28;61906;-79
2022/10/22 14:28:17;;;;;;;;;0.00;0.00;;;;;;;;5040983;28;61818;-80
2022/10/22 14:30:42;;;;;;;;;0.33;0.33;;;;;;;;5040599;28;61699;-79
2022/10/22 14:33:34;;;;;;;;;0.00;0.00;;;;;;;;5022286;28;63702;-78
2022/10/22 14:35:59;;;;;;;;;0.00;0.00;;;;;;;;5035306;28;61753;-80
2022/10/22 14:38:25;;;;;;;;;0.00;0.00;;;;;;;;5041671;28;62000;-79
2022/10/22 14:40:50;;;;;;;;;0.67;0.00;;;;;;;;5046447;28;62009;-79
2022/10/22 14:43:23;;;;;;;;;0.00;0.00;;;;;;;;5042388;28;61803;-80
2022/10/22 14:45:48;;;;;;;;;1.00;0.00;;;;;;;;5048814;28;62135;-79
2022/10/22 14:48:14;;;;;;;;;0.33;0.33;;;;;;;;5030478;28;62117;-78
2022/10/22 14:50:40;;;;;;;;;0.00;0.00;;;;;;;;5032279;28;61934;-79